Terminal Aerodrome Forecast
Issued by NWS Blacksburg, VA

Home | Current Version | Previous Version | Text Only | Print | Product List | Glossary On
Versions: 1 2 3 4 5 6 7 8 9 10 11 12 13 14 15 16 17 18
000
FTUS41 KRNK 242334
TAFROA
TAF
KROA 242334Z 2500/2524 16004KT P6SM SCT250
     FM250800 VRB03KT P6SM BKN040
     FM251400 22007KT 5SM SHRA BKN030
      TEMPO 2514/2518 2SM SHRA BKN020
     FM251800 28011G21KT P6SM BKN045
     FM252200 29015G30KT P6SM SCT050=

USA.gov is the U.S. government's official web portal to all federal, state and local government web resources and services.